• Join FlightAware (Why Join?)
  • Login
  • US Flag 
03:07AM EST


 

Airport Tracker/Info


-or-


 

Live Flight TrackerFlight Track Log ✈ CNS1029 ✈ 02-Jun-2013 ✈ KHPN - KPSM

Flight Track Log - Related Links

Times and Time Zones

All times are in EDT time to prevent confusion due to time zone crossing. See the CNS1029 flight status page for this flight to view local times or setup timezone preferences in your user account.

Time Position Orientation Groundspeed Altitude Reporting Facility
EDT Latitude Longitude Course Direction KTS MPH feet Rate Location/Type
06:11PM 41.1500 -73.5000 48° Northeast 213 245 5,400  Level New York TRACON
06:12PM 41.1833 -73.4333 56° Northeast 215 247 6,900 1,440 Climbing New York TRACON
06:13PM 41.2167 -73.3667 56° Northeast 226 260 8,200 1,020 Climbing New York TRACON
06:15PM 41.4009 -73.2480 46° Northeast  Level Estimated
06:16PM 41.3356 -73.1283 56° Northeast 259 298 11,400  Level Boston Center
06:17PM 41.3797 -73.0431 55° Northeast 265 305 11,400  Level Boston Center
06:18PM 41.4258 -72.9550 55° Northeast 279 321 11,400  Level Boston Center
06:19PM 41.4700 -72.8667 56° Northeast 284 327 11,400  Level Boston Center
06:20PM 41.5161 -72.7783 55° Northeast 284 327 11,400  Level Boston Center
06:21PM 41.5622 -72.6925 54° Northeast 284 327 11,400  Level Boston Center
06:22PM 41.6083 -72.6039 55° Northeast 284 327 11,400  Level Boston Center
06:23PM 41.6542 -72.5178 55° Northeast 284 327 11,400  Level Boston Center
06:24PM 41.7003 -72.4344 53° Northeast 291 335 11,500 -300 Climbing Boston Center
06:24PM 41.7292 -72.3817 54° Northeast 297 342 11,000 -960 Descending Boston Center
06:25PM 41.7500 -72.3400 56° Northeast 284 327 10,500 -900 Descending Boston Center
06:25PM 41.7689 -72.2814 67° East 302 348 10,100 -840 Descending Boston Center
06:26PM 41.7811 -72.2286 73° East 299 344 9,700 -540 Descending Boston Center
06:26PM 41.7936 -72.1728 73° East 302 348 9,600 -120 Descending Boston Center
06:27PM 41.8061 -72.1281 69° East 299 344 9,600  Level Boston Center
06:28PM 41.8244 -72.0611 70° East 289 333 9,600  Level Boston Center
06:28PM 41.8328 -72.0389 63° Northeast 282 325 9,600  Level Boston Center
06:28PM 41.8658 -71.9831 52° Northeast 287 330 9,600  Level Boston Center
06:29PM 41.8931 -71.9575 35° Northeast 277 319 9,600  Level Boston Center
06:30PM 41.9219 -71.8989 56° Northeast 291 335 9,600  Level Boston Center
06:30PM 41.9300 -71.8736 67° East 277 319 9,600  Level Boston Center
06:31PM 41.9483 -71.7981 72° East 289 333 9,600  Level Boston Center
06:31PM 41.9692 -71.7728 42° Northeast 277 319 9,600  Level Boston Center
06:32PM 42.0189 -71.7331 31° Northeast 280 322 9,600  Level Boston Center
06:32PM 42.0292 -71.7247 31° Northeast 267 307 9,600  Level Boston Center
06:32PM 42.0747 -71.6850 33° Northeast 283 326 9,600 -120 Level Boston Center
06:33PM 42.1017 -71.6622 32° Northeast 278 320 9,500 -120 Descending Boston Center
06:34PM 42.1597 -71.6111 33° Northeast 278 320 9,500  Level Boston Center
06:35PM 42.2261 -71.5569 31° Northeast 270 311 9,500  Level Boston Center
06:36PM 42.2986 -71.4969 31° Northeast 275 316 9,500  Level Boston Center
06:37PM 42.3647 -71.4397 33° Northeast 275 316 9,500  Level Boston Center
06:38PM 42.4167 -71.4000 29° Northeast 280 322 9,600 -60 Climbing KA90
06:39PM 42.4833 -71.3333 36° Northeast 281 323 9,400 -600 Descending KA90
06:40PM 42.5500 -71.2833 29° Northeast 294 338 8,400 -1,020 Descending KA90
06:41PM 42.6167 -71.2167 36° Northeast 291 335 7,400 -960 Descending KA90
06:41PM 42.6333 -71.2097 17° North 280 322 7,200 -960 Descending Boston Center
06:42PM 42.6867 -71.1381 45° Northeast 285 328 6,200 -1,020 Descending Boston Center
06:43PM 42.7442 -71.0519 48° Northeast 285 328 5,200 -960 Descending Boston Center
06:44PM 42.7914 -70.9858 46° Northeast 272 313 4,300 -960 Descending Boston Center
06:45PM 42.8508 -70.9136 42° Northeast 264 304 3,300 -960 Descending Boston Center
06:46PM 42.9000 -70.8667 35° Northeast 248 285 2,600 -600 Descending KA90
06:47PM 42.9667 -70.8167 29° Northeast 250 288 2,200 -300 Descending KA90
06:48PM 43.0167 -70.7833 26° Northeast 194 223 2,000 -840 Descending KA90
06:49PM 43.0500 -70.8000 340° North 119 137 700 -720 Descending KA90
06:50PM 43.0869 -70.8197 339° North 109 125 200 3,300 Descending Boston Center
06:51PM 43.1122 -70.8331 339° North 109 125 9,500 9,300 Climbing Boston Center
06:53PM 43.0779 -70.8233 180° South  Level Estimated
07:00PM 43.0779 -70.8233 180° South  Level Estimated
07:01PM 43.0779 -70.8233 180° South  Level Estimated
07:02PM 43.0779 -70.8233 180° South  Level Estimated
07:03PM 43.0779 -70.8233 180° South  Level Estimated
07:04PM 43.0779 -70.8233 180° South  Level Estimated
07:05PM 43.0779 -70.8233 180° South  Level Estimated
07:06PM 43.0779 -70.8233 180° South  Level Estimated